sensor_id;sensor_type;location;lat;lon;timestamp;P1;durP1;ratioP1;P2;durP2;ratioP2
70560;SDS011;58109;53.570;10.084;2023-07-08T00:00:52;11.33;;;4.37;;
70560;SDS011;58109;53.570;10.084;2023-07-08T00:03:18;9.57;;;4.70;;
70560;SDS011;58109;53.570;10.084;2023-07-08T00:05:44;7.40;;;4.17;;
70560;SDS011;58109;53.570;10.084;2023-07-08T00:08:14;8.30;;;4.70;;
70560;SDS011;58109;53.570;10.084;2023-07-08T00:10:40;10.70;;;4.70;;
70560;SDS011;58109;53.570;10.084;2023-07-08T00:13:05;6.17;;;3.60;;
70560;SDS011;58109;53.570;10.084;2023-07-08T00:15:33;12.07;;;4.10;;
70560;SDS011;58109;53.570;10.084;2023-07-08T00:17:59;6.33;;;4.27;;
70560;SDS011;58109;53.570;10.084;2023-07-08T00:20:40;12.87;;;4.20;;
70560;SDS011;58109;53.570;10.084;2023-07-08T00:23:14;6.93;;;4.10;;
70560;SDS011;58109;53.570;10.084;2023-07-08T00:25:40;7.00;;;3.70;;
70560;SDS011;58109;53.570;10.084;2023-07-08T00:28:09;8.63;;;4.53;;
70560;SDS011;58109;53.570;10.084;2023-07-08T00:30:35;17.83;;;4.97;;
70560;SDS011;58109;53.570;10.084;2023-07-08T00:33:00;6.90;;;3.90;;
70560;SDS011;58109;53.570;10.084;2023-07-08T00:35:36;8.40;;;4.47;;
70560;SDS011;58109;53.570;10.084;2023-07-08T00:40:48;13.93;;;4.50;;
70560;SDS011;58109;53.570;10.084;2023-07-08T00:43:15;10.43;;;4.63;;
70560;SDS011;58109;53.570;10.084;2023-07-08T00:45:43;7.60;;;4.33;;
70560;SDS011;58109;53.570;10.084;2023-07-08T00:48:18;7.97;;;4.43;;
70560;SDS011;58109;53.570;10.084;2023-07-08T00:50:47;8.27;;;4.40;;
70560;SDS011;58109;53.570;10.084;2023-07-08T00:55:50;10.00;;;3.90;;
70560;SDS011;58109;53.570;10.084;2023-07-08T00:58:21;10.60;;;4.40;;
70560;SDS011;58109;53.570;10.084;2023-07-08T01:00:48;10.97;;;4.70;;
70560;SDS011;58109;53.570;10.084;2023-07-08T01:03:16;8.30;;;5.13;;
70560;SDS011;58109;53.570;10.084;2023-07-08T01:05:44;11.67;;;5.30;;
70560;SDS011;58109;53.570;10.084;2023-07-08T01:08:10;6.80;;;4.20;;
70560;SDS011;58109;53.570;10.084;2023-07-08T01:10:39;7.43;;;4.67;;
70560;SDS011;58109;53.570;10.084;2023-07-08T01:13:13;7.43;;;4.43;;
70560;SDS011;58109;53.570;10.084;2023-07-08T01:15:45;7.33;;;4.47;;
70560;SDS011;58109;53.570;10.084;2023-07-08T01:18:14;7.70;;;4.93;;
70560;SDS011;58109;53.570;10.084;2023-07-08T01:20:48;12.17;;;4.57;;
70560;SDS011;58109;53.570;10.084;2023-07-08T01:23:16;11.67;;;5.27;;
70560;SDS011;58109;53.570;10.084;2023-07-08T01:25:45;7.33;;;4.20;;
70560;SDS011;58109;53.570;10.084;2023-07-08T01:28:13;7.63;;;4.60;;
70560;SDS011;58109;53.570;10.084;2023-07-08T01:30:40;9.40;;;4.17;;
70560;SDS011;58109;53.570;10.084;2023-07-08T01:33:14;9.93;;;4.37;;
70560;SDS011;58109;53.570;10.084;2023-07-08T01:35:43;8.33;;;4.80;;
70560;SDS011;58109;53.570;10.084;2023-07-08T01:38:10;7.57;;;4.77;;
70560;SDS011;58109;53.570;10.084;2023-07-08T01:40:47;11.60;;;5.03;;
70560;SDS011;58109;53.570;10.084;2023-07-08T01:43:16;6.67;;;4.40;;
70560;SDS011;58109;53.570;10.084;2023-07-08T01:45:43;7.67;;;5.13;;
70560;SDS011;58109;53.570;10.084;2023-07-08T01:48:13;13.63;;;4.70;;
70560;SDS011;58109;53.570;10.084;2023-07-08T01:50:43;11.93;;;4.90;;
70560;SDS011;58109;53.570;10.084;2023-07-08T01:53:15;11.17;;;5.40;;
70560;SDS011;58109;53.570;10.084;2023-07-08T01:55:41;8.40;;;4.97;;
70560;SDS011;58109;53.570;10.084;2023-07-08T01:58:09;8.47;;;4.67;;
70560;SDS011;58109;53.570;10.084;2023-07-08T02:00:37;12.90;;;5.60;;
70560;SDS011;58109;53.570;10.084;2023-07-08T02:03:05;10.70;;;5.07;;
70560;SDS011;58109;53.570;10.084;2023-07-08T02:05:34;8.63;;;4.87;;
70560;SDS011;58109;53.570;10.084;2023-07-08T02:08:00;10.20;;;5.10;;
70560;SDS011;58109;53.570;10.084;2023-07-08T02:10:28;10.43;;;4.80;;
70560;SDS011;58109;53.570;10.084;2023-07-08T02:12:55;10.40;;;5.27;;
70560;SDS011;58109;53.570;10.084;2023-07-08T02:15:21;7.87;;;5.20;;
70560;SDS011;58109;53.570;10.084;2023-07-08T02:17:47;7.47;;;4.60;;
70560;SDS011;58109;53.570;10.084;2023-07-08T02:20:15;6.87;;;5.53;;
70560;SDS011;58109;53.570;10.084;2023-07-08T02:22:43;9.27;;;5.17;;
70560;SDS011;58109;53.570;10.084;2023-07-08T02:25:08;8.70;;;4.63;;
70560;SDS011;58109;53.570;10.084;2023-07-08T02:27:34;12.73;;;4.20;;
70560;SDS011;58109;53.570;10.084;2023-07-08T02:30:00;13.13;;;5.27;;
70560;SDS011;58109;53.570;10.084;2023-07-08T02:32:28;10.43;;;5.27;;
70560;SDS011;58109;53.570;10.084;2023-07-08T02:34:54;9.47;;;5.30;;
70560;SDS011;58109;53.570;10.084;2023-07-08T02:37:19;11.93;;;5.00;;
70560;SDS011;58109;53.570;10.084;2023-07-08T02:39:44;14.87;;;5.27;;
70560;SDS011;58109;53.570;10.084;2023-07-08T02:42:10;10.20;;;5.97;;
70560;SDS011;58109;53.570;10.084;2023-07-08T02:44:35;11.43;;;6.13;;
70560;SDS011;58109;53.570;10.084;2023-07-08T02:47:01;11.03;;;5.00;;
70560;SDS011;58109;53.570;10.084;2023-07-08T02:49:26;7.33;;;4.70;;
70560;SDS011;58109;53.570;10.084;2023-07-08T02:51:55;21.63;;;5.13;;
70560;SDS011;58109;53.570;10.084;2023-07-08T02:54:20;8.30;;;4.97;;
70560;SDS011;58109;53.570;10.084;2023-07-08T02:56:48;16.03;;;8.90;;
70560;SDS011;58109;53.570;10.084;2023-07-08T02:59:13;11.33;;;6.17;;
70560;SDS011;58109;53.570;10.084;2023-07-08T03:01:43;7.10;;;5.23;;
70560;SDS011;58109;53.570;10.084;2023-07-08T03:04:11;10.90;;;5.20;;
70560;SDS011;58109;53.570;10.084;2023-07-08T03:06:40;9.00;;;5.40;;
70560;SDS011;58109;53.570;10.084;2023-07-08T03:09:09;6.97;;;5.10;;
70560;SDS011;58109;53.570;10.084;2023-07-08T03:11:38;6.83;;;4.80;;
70560;SDS011;58109;53.570;10.084;2023-07-08T03:14:04;17.10;;;7.13;;
70560;SDS011;58109;53.570;10.084;2023-07-08T03:16:32;10.23;;;6.17;;
70560;SDS011;58109;53.570;10.084;2023-07-08T03:18:57;7.90;;;4.87;;
70560;SDS011;58109;53.570;10.084;2023-07-08T03:21:25;11.57;;;5.37;;
70560;SDS011;58109;53.570;10.084;2023-07-08T03:23:53;10.97;;;5.40;;
70560;SDS011;58109;53.570;10.084;2023-07-08T03:26:19;6.93;;;5.00;;
70560;SDS011;58109;53.570;10.084;2023-07-08T03:28:48;12.13;;;5.83;;
70560;SDS011;58109;53.570;10.084;2023-07-08T03:31:14;50.27;;;15.53;;
70560;SDS011;58109;53.570;10.084;2023-07-08T03:33:39;6.40;;;4.80;;
70560;SDS011;58109;53.570;10.084;2023-07-08T03:36:08;7.90;;;5.80;;
70560;SDS011;58109;53.570;10.084;2023-07-08T03:38:47;8.40;;;5.40;;
70560;SDS011;58109;53.570;10.084;2023-07-08T03:41:12;8.37;;;6.27;;
70560;SDS011;58109;53.570;10.084;2023-07-08T03:43:40;16.13;;;5.67;;
70560;SDS011;58109;53.570;10.084;2023-07-08T03:46:07;7.80;;;5.03;;
70560;SDS011;58109;53.570;10.084;2023-07-08T03:48:35;6.93;;;4.80;;
70560;SDS011;58109;53.570;10.084;2023-07-08T03:51:03;13.93;;;9.33;;
70560;SDS011;58109;53.570;10.084;2023-07-08T03:53:28;15.33;;;10.20;;
70560;SDS011;58109;53.570;10.084;2023-07-08T03:55:54;27.87;;;15.40;;
70560;SDS011;58109;53.570;10.084;2023-07-08T03:58:26;17.30;;;10.73;;
70560;SDS011;58109;53.570;10.084;2023-07-08T04:00:55;19.93;;;14.00;;
70560;SDS011;58109;53.570;10.084;2023-07-08T04:03:21;41.67;;;21.73;;
70560;SDS011;58109;53.570;10.084;2023-07-08T04:05:46;25.83;;;16.33;;
70560;SDS011;58109;53.570;10.084;2023-07-08T04:08:14;16.07;;;9.33;;
70560;SDS011;58109;53.570;10.084;2023-07-08T04:10:42;13.23;;;6.90;;
70560;SDS011;58109;53.570;10.084;2023-07-08T04:13:07;11.07;;;8.10;;
70560;SDS011;58109;53.570;10.084;2023-07-08T04:15:35;38.63;;;18.43;;
70560;SDS011;58109;53.570;10.084;2023-07-08T04:18:03;43.70;;;24.17;;
70560;SDS011;58109;53.570;10.084;2023-07-08T04:20:29;60.37;;;25.50;;
70560;SDS011;58109;53.570;10.084;2023-07-08T04:22:57;75.70;;;30.50;;
70560;SDS011;58109;53.570;10.084;2023-07-08T04:25:34;74.20;;;30.73;;
70560;SDS011;58109;53.570;10.084;2023-07-08T04:28:15;94.70;;;32.33;;
70560;SDS011;58109;53.570;10.084;2023-07-08T04:30:41;112.83;;;36.63;;
70560;SDS011;58109;53.570;10.084;2023-07-08T04:33:10;33.53;;;18.47;;
70560;SDS011;58109;53.570;10.084;2023-07-08T04:35:37;16.63;;;10.83;;
70560;SDS011;58109;53.570;10.084;2023-07-08T04:38:06;27.10;;;17.03;;
70560;SDS011;58109;53.570;10.084;2023-07-08T04:40:40;36.63;;;19.50;;
70560;SDS011;58109;53.570;10.084;2023-07-08T04:43:06;68.77;;;28.60;;
70560;SDS011;58109;53.570;10.084;2023-07-08T04:45:32;33.23;;;19.93;;
70560;SDS011;58109;53.570;10.084;2023-07-08T04:47:58;89.37;;;33.03;;
70560;SDS011;58109;53.570;10.084;2023-07-08T04:50:23;98.10;;;33.90;;
70560;SDS011;58109;53.570;10.084;2023-07-08T04:52:48;107.73;;;39.80;;
70560;SDS011;58109;53.570;10.084;2023-07-08T04:55:17;16.70;;;9.93;;
70560;SDS011;58109;53.570;10.084;2023-07-08T04:57:43;21.93;;;14.77;;
70560;SDS011;58109;53.570;10.084;2023-07-08T05:00:12;75.80;;;29.90;;
70560;SDS011;58109;53.570;10.084;2023-07-08T05:02:44;15.30;;;11.40;;
70560;SDS011;58109;53.570;10.084;2023-07-08T05:05:14;9.10;;;3.67;;
70560;SDS011;58109;53.570;10.084;2023-07-08T05:07:39;10.20;;;4.30;;
70560;SDS011;58109;53.570;10.084;2023-07-08T05:10:07;9.57;;;4.00;;
70560;SDS011;58109;53.570;10.084;2023-07-08T05:12:33;9.87;;;4.13;;
70560;SDS011;58109;53.570;10.084;2023-07-08T05:15:00;6.70;;;3.20;;
70560;SDS011;58109;53.570;10.084;2023-07-08T05:17:26;7.80;;;3.30;;
70560;SDS011;58109;53.570;10.084;2023-07-08T05:19:54;9.20;;;3.50;;
70560;SDS011;58109;53.570;10.084;2023-07-08T05:22:22;9.10;;;4.40;;
70560;SDS011;58109;53.570;10.084;2023-07-08T05:24:51;6.17;;;3.50;;
70560;SDS011;58109;53.570;10.084;2023-07-08T05:27:17;6.63;;;3.60;;
70560;SDS011;58109;53.570;10.084;2023-07-08T05:29:43;5.37;;;3.47;;
70560;SDS011;58109;53.570;10.084;2023-07-08T05:32:13;6.60;;;3.40;;
70560;SDS011;58109;53.570;10.084;2023-07-08T05:34:38;14.43;;;3.63;;
70560;SDS011;58109;53.570;10.084;2023-07-08T05:37:06;9.13;;;3.70;;
70560;SDS011;58109;53.570;10.084;2023-07-08T05:39:31;5.03;;;3.80;;
70560;SDS011;58109;53.570;10.084;2023-07-08T05:41:57;6.10;;;3.53;;
70560;SDS011;58109;53.570;10.084;2023-07-08T05:44:25;5.27;;;3.80;;
70560;SDS011;58109;53.570;10.084;2023-07-08T05:46:53;5.63;;;2.97;;
70560;SDS011;58109;53.570;10.084;2023-07-08T05:49:21;6.13;;;3.97;;
70560;SDS011;58109;53.570;10.084;2023-07-08T05:51:46;12.87;;;4.47;;
70560;SDS011;58109;53.570;10.084;2023-07-08T05:54:12;9.47;;;3.20;;
70560;SDS011;58109;53.570;10.084;2023-07-08T05:56:40;10.87;;;4.07;;
70560;SDS011;58109;53.570;10.084;2023-07-08T05:59:08;6.07;;;3.00;;
70560;SDS011;58109;53.570;10.084;2023-07-08T06:01:37;4.83;;;3.23;;
70560;SDS011;58109;53.570;10.084;2023-07-08T06:04:04;4.97;;;3.30;;
70560;SDS011;58109;53.570;10.084;2023-07-08T06:06:30;7.40;;;3.50;;
70560;SDS011;58109;53.570;10.084;2023-07-08T06:08:57;8.33;;;2.90;;
70560;SDS011;58109;53.570;10.084;2023-07-08T06:11:25;8.03;;;2.90;;
70560;SDS011;58109;53.570;10.084;2023-07-08T06:13:53;4.83;;;3.07;;
70560;SDS011;58109;53.570;10.084;2023-07-08T06:16:21;6.20;;;3.37;;
70560;SDS011;58109;53.570;10.084;2023-07-08T06:18:46;4.50;;;3.30;;
70560;SDS011;58109;53.570;10.084;2023-07-08T06:21:12;7.13;;;3.40;;
70560;SDS011;58109;53.570;10.084;2023-07-08T06:23:40;6.70;;;3.27;;
70560;SDS011;58109;53.570;10.084;2023-07-08T06:26:05;6.93;;;3.90;;
70560;SDS011;58109;53.570;10.084;2023-07-08T06:28:33;11.50;;;3.67;;
70560;SDS011;58109;53.570;10.084;2023-07-08T06:30:58;6.17;;;4.07;;
70560;SDS011;58109;53.570;10.084;2023-07-08T06:33:26;5.03;;;3.00;;
70560;SDS011;58109;53.570;10.084;2023-07-08T06:35:51;5.37;;;3.43;;
70560;SDS011;58109;53.570;10.084;2023-07-08T06:38:17;5.77;;;3.10;;
70560;SDS011;58109;53.570;10.084;2023-07-08T06:40:44;4.20;;;2.87;;
70560;SDS011;58109;53.570;10.084;2023-07-08T06:43:12;7.23;;;3.50;;
70560;SDS011;58109;53.570;10.084;2023-07-08T06:45:38;6.10;;;3.23;;
70560;SDS011;58109;53.570;10.084;2023-07-08T06:48:03;4.33;;;2.63;;
70560;SDS011;58109;53.570;10.084;2023-07-08T06:50:31;7.50;;;2.90;;
70560;SDS011;58109;53.570;10.084;2023-07-08T06:52:57;13.90;;;3.10;;
70560;SDS011;58109;53.570;10.084;2023-07-08T06:55:25;11.37;;;3.90;;
70560;SDS011;58109;53.570;10.084;2023-07-08T06:57:50;5.80;;;3.37;;
70560;SDS011;58109;53.570;10.084;2023-07-08T07:00:16;5.57;;;3.20;;
70560;SDS011;58109;53.570;10.084;2023-07-08T07:02:47;7.47;;;3.03;;
70560;SDS011;58109;53.570;10.084;2023-07-08T07:05:17;4.60;;;2.90;;
70560;SDS011;58109;53.570;10.084;2023-07-08T07:07:45;3.40;;;2.80;;
70560;SDS011;58109;53.570;10.084;2023-07-08T07:10:10;4.93;;;3.43;;
70560;SDS011;58109;53.570;10.084;2023-07-08T07:12:36;8.83;;;3.87;;
70560;SDS011;58109;53.570;10.084;2023-07-08T07:15:04;6.30;;;3.03;;
70560;SDS011;58109;53.570;10.084;2023-07-08T07:17:35;4.07;;;2.87;;
70560;SDS011;58109;53.570;10.084;2023-07-08T07:20:01;5.83;;;3.30;;
70560;SDS011;58109;53.570;10.084;2023-07-08T07:22:28;6.53;;;3.13;;
70560;SDS011;58109;53.570;10.084;2023-07-08T07:24:56;4.40;;;2.80;;
70560;SDS011;58109;53.570;10.084;2023-07-08T07:27:24;4.47;;;2.63;;
70560;SDS011;58109;53.570;10.084;2023-07-08T07:29:54;7.87;;;2.87;;
70560;SDS011;58109;53.570;10.084;2023-07-08T07:32:22;6.07;;;3.17;;
70560;SDS011;58109;53.570;10.084;2023-07-08T07:34:50;7.23;;;3.30;;
70560;SDS011;58109;53.570;10.084;2023-07-08T07:37:19;7.13;;;3.67;;
70560;SDS011;58109;53.570;10.084;2023-07-08T07:39:50;6.87;;;2.87;;
70560;SDS011;58109;53.570;10.084;2023-07-08T07:42:18;9.30;;;3.87;;
70560;SDS011;58109;53.570;10.084;2023-07-08T07:44:44;10.50;;;5.37;;
70560;SDS011;58109;53.570;10.084;2023-07-08T07:47:12;7.33;;;4.10;;
70560;SDS011;58109;53.570;10.084;2023-07-08T07:49:43;4.87;;;3.40;;
70560;SDS011;58109;53.570;10.084;2023-07-08T07:52:13;12.00;;;3.33;;
70560;SDS011;58109;53.570;10.084;2023-07-08T07:54:38;4.57;;;3.00;;
70560;SDS011;58109;53.570;10.084;2023-07-08T07:57:04;7.00;;;4.20;;
70560;SDS011;58109;53.570;10.084;2023-07-08T07:59:30;7.00;;;3.10;;
70560;SDS011;58109;53.570;10.084;2023-07-08T08:02:00;4.30;;;3.30;;
70560;SDS011;58109;53.570;10.084;2023-07-08T08:04:28;11.53;;;3.00;;
70560;SDS011;58109;53.570;10.084;2023-07-08T08:06:53;9.83;;;5.50;;
70560;SDS011;58109;53.570;10.084;2023-07-08T08:09:19;5.80;;;3.70;;
70560;SDS011;58109;53.570;10.084;2023-07-08T08:11:46;4.23;;;3.17;;
70560;SDS011;58109;53.570;10.084;2023-07-08T08:14:13;3.33;;;2.87;;
70560;SDS011;58109;53.570;10.084;2023-07-08T08:16:43;5.07;;;2.80;;
70560;SDS011;58109;53.570;10.084;2023-07-08T08:19:09;4.70;;;3.33;;
70560;SDS011;58109;53.570;10.084;2023-07-08T08:21:37;5.50;;;2.80;;
70560;SDS011;58109;53.570;10.084;2023-07-08T08:24:02;5.50;;;2.70;;
70560;SDS011;58109;53.570;10.084;2023-07-08T08:26:28;3.87;;;2.63;;
70560;SDS011;58109;53.570;10.084;2023-07-08T08:28:55;7.20;;;3.70;;
70560;SDS011;58109;53.570;10.084;2023-07-08T08:31:20;5.63;;;2.80;;
70560;SDS011;58109;53.570;10.084;2023-07-08T08:33:46;14.50;;;4.60;;
70560;SDS011;58109;53.570;10.084;2023-07-08T08:36:11;3.43;;;2.67;;
70560;SDS011;58109;53.570;10.084;2023-07-08T08:38:39;5.50;;;2.97;;
70560;SDS011;58109;53.570;10.084;2023-07-08T08:41:13;3.60;;;2.50;;
70560;SDS011;58109;53.570;10.084;2023-07-08T08:43:39;3.43;;;2.77;;
70560;SDS011;58109;53.570;10.084;2023-07-08T08:51:30;10.73;;;4.40;;
70560;SDS011;58109;53.570;10.084;2023-07-08T08:53:59;11.23;;;3.33;;
70560;SDS011;58109;53.570;10.084;2023-07-08T08:56:29;4.97;;;2.63;;
70560;SDS011;58109;53.570;10.084;2023-07-08T09:01:30;4.90;;;3.20;;
70560;SDS011;58109;53.570;10.084;2023-07-08T09:04:00;10.23;;;5.77;;
70560;SDS011;58109;53.570;10.084;2023-07-08T09:07:12;7.67;;;3.87;;
70560;SDS011;58109;53.570;10.084;2023-07-08T09:09:53;4.97;;;3.20;;
70560;SDS011;58109;53.570;10.084;2023-07-08T09:12:22;7.27;;;3.20;;
70560;SDS011;58109;53.570;10.084;2023-07-08T09:14:52;11.03;;;2.90;;
70560;SDS011;58109;53.570;10.084;2023-07-08T09:23:00;3.20;;;2.33;;
70560;SDS011;58109;53.570;10.084;2023-07-08T09:28:05;4.23;;;3.27;;
70560;SDS011;58109;53.570;10.084;2023-07-08T09:30:30;3.13;;;2.60;;
70560;SDS011;58109;53.570;10.084;2023-07-08T09:33:00;4.10;;;2.40;;
70560;SDS011;58109;53.570;10.084;2023-07-08T09:35:29;5.13;;;2.90;;
70560;SDS011;58109;53.570;10.084;2023-07-08T09:38:12;9.00;;;2.97;;
70560;SDS011;58109;53.570;10.084;2023-07-08T09:40:47;6.40;;;2.80;;
70560;SDS011;58109;53.570;10.084;2023-07-08T09:45:44;4.73;;;2.50;;
70560;SDS011;58109;53.570;10.084;2023-07-08T09:48:30;4.73;;;2.93;;
70560;SDS011;58109;53.570;10.084;2023-07-08T09:50:59;7.60;;;2.80;;
70560;SDS011;58109;53.570;10.084;2023-07-08T09:53:29;7.60;;;3.30;;
70560;SDS011;58109;53.570;10.084;2023-07-08T09:55:57;4.03;;;3.10;;
70560;SDS011;58109;53.570;10.084;2023-07-08T09:58:32;7.60;;;2.90;;
70560;SDS011;58109;53.570;10.084;2023-07-08T10:01:17;7.43;;;2.77;;
70560;SDS011;58109;53.570;10.084;2023-07-08T10:03:46;3.87;;;2.63;;
70560;SDS011;58109;53.570;10.084;2023-07-08T10:06:22;4.87;;;2.80;;
70560;SDS011;58109;53.570;10.084;2023-07-08T10:08:49;4.63;;;3.17;;
70560;SDS011;58109;53.570;10.084;2023-07-08T10:13:53;29.20;;;18.90;;
70560;SDS011;58109;53.570;10.084;2023-07-08T10:16:24;21.10;;;13.13;;
70560;SDS011;58109;53.570;10.084;2023-07-08T10:18:54;8.03;;;3.93;;
70560;SDS011;58109;53.570;10.084;2023-07-08T10:40:28;4.03;;;2.97;;
70560;SDS011;58109;53.570;10.084;2023-07-08T10:45:44;9.03;;;3.00;;
70560;SDS011;58109;53.570;10.084;2023-07-08T10:59:18;3.47;;;2.87;;
70560;SDS011;58109;53.570;10.084;2023-07-08T11:02:17;7.67;;;3.40;;
70560;SDS011;58109;53.570;10.084;2023-07-08T11:10:15;4.43;;;2.70;;
70560;SDS011;58109;53.570;10.084;2023-07-08T11:12:45;12.13;;;7.03;;
70560;SDS011;58109;53.570;10.084;2023-07-08T11:15:18;4.03;;;2.90;;
70560;SDS011;58109;53.570;10.084;2023-07-08T11:23:40;3.60;;;2.80;;
70560;SDS011;58109;53.570;10.084;2023-07-08T11:28:56;5.87;;;3.30;;
70560;SDS011;58109;53.570;10.084;2023-07-08T11:31:23;4.90;;;3.20;;
70560;SDS011;58109;53.570;10.084;2023-07-08T11:33:55;3.80;;;2.60;;
70560;SDS011;58109;53.570;10.084;2023-07-08T11:36:24;5.93;;;2.97;;
70560;SDS011;58109;53.570;10.084;2023-07-08T11:38:52;29.03;;;20.50;;
70560;SDS011;58109;53.570;10.084;2023-07-08T11:41:25;8.10;;;5.80;;
70560;SDS011;58109;53.570;10.084;2023-07-08T11:44:03;11.10;;;4.10;;
70560;SDS011;58109;53.570;10.084;2023-07-08T11:46:30;6.33;;;5.80;;
70560;SDS011;58109;53.570;10.084;2023-07-08T11:49:04;9.27;;;8.33;;
70560;SDS011;58109;53.570;10.084;2023-07-08T11:51:34;20.80;;;15.57;;
70560;SDS011;58109;53.570;10.084;2023-07-08T11:59:28;180.17;;;67.80;;
70560;SDS011;58109;53.570;10.084;2023-07-08T12:02:02;62.33;;;32.90;;
70560;SDS011;58109;53.570;10.084;2023-07-08T12:04:33;102.33;;;46.73;;
70560;SDS011;58109;53.570;10.084;2023-07-08T12:09:30;101.43;;;47.17;;
70560;SDS011;58109;53.570;10.084;2023-07-08T12:12:03;177.03;;;66.47;;
70560;SDS011;58109;53.570;10.084;2023-07-08T12:14:32;93.57;;;44.27;;
70560;SDS011;58109;53.570;10.084;2023-07-08T12:16:57;57.63;;;33.03;;
70560;SDS011;58109;53.570;10.084;2023-07-08T12:19:27;51.30;;;30.80;;
70560;SDS011;58109;53.570;10.084;2023-07-08T12:21:56;79.73;;;42.83;;
70560;SDS011;58109;53.570;10.084;2023-07-08T12:24:24;88.10;;;41.87;;
70560;SDS011;58109;53.570;10.084;2023-07-08T12:26:52;57.23;;;32.67;;
70560;SDS011;58109;53.570;10.084;2023-07-08T12:29:18;129.03;;;53.17;;
70560;SDS011;58109;53.570;10.084;2023-07-08T12:31:43;148.07;;;60.13;;
70560;SDS011;58109;53.570;10.084;2023-07-08T12:34:14;152.40;;;61.53;;
70560;SDS011;58109;53.570;10.084;2023-07-08T12:36:41;354.00;;;109.80;;
70560;SDS011;58109;53.570;10.084;2023-07-08T12:39:08;249.20;;;81.00;;
70560;SDS011;58109;53.570;10.084;2023-07-08T12:41:40;298.57;;;97.23;;
70560;SDS011;58109;53.570;10.084;2023-07-08T12:44:13;253.87;;;79.93;;
70560;SDS011;58109;53.570;10.084;2023-07-08T12:46:43;198.20;;;70.20;;
70560;SDS011;58109;53.570;10.084;2023-07-08T12:49:09;184.93;;;68.10;;
70560;SDS011;58109;53.570;10.084;2023-07-08T12:51:43;17.67;;;14.93;;
70560;SDS011;58109;53.570;10.084;2023-07-08T12:54:09;30.00;;;23.13;;
70560;SDS011;58109;53.570;10.084;2023-07-08T12:56:35;16.00;;;13.40;;
70560;SDS011;58109;53.570;10.084;2023-07-08T12:59:01;21.03;;;17.73;;
70560;SDS011;58109;53.570;10.084;2023-07-08T13:01:28;24.53;;;19.93;;
70560;SDS011;58109;53.570;10.084;2023-07-08T13:04:09;39.53;;;25.33;;
70560;SDS011;58109;53.570;10.084;2023-07-08T13:06:35;57.23;;;30.83;;
70560;SDS011;58109;53.570;10.084;2023-07-08T13:11:39;60.27;;;33.07;;
70560;SDS011;58109;53.570;10.084;2023-07-08T13:14:06;62.40;;;35.83;;
70560;SDS011;58109;53.570;10.084;2023-07-08T13:16:34;80.60;;;41.53;;
70560;SDS011;58109;53.570;10.084;2023-07-08T13:19:00;80.03;;;42.03;;
70560;SDS011;58109;53.570;10.084;2023-07-08T13:21:28;127.67;;;53.53;;
70560;SDS011;58109;53.570;10.084;2023-07-08T13:23:55;160.23;;;62.23;;
70560;SDS011;58109;53.570;10.084;2023-07-08T13:26:24;278.40;;;87.53;;
70560;SDS011;58109;53.570;10.084;2023-07-08T13:28:59;343.50;;;101.40;;
70560;SDS011;58109;53.570;10.084;2023-07-08T13:31:38;155.40;;;57.60;;
70560;SDS011;58109;53.570;10.084;2023-07-08T13:34:18;78.97;;;39.33;;
70560;SDS011;58109;53.570;10.084;2023-07-08T13:36:46;90.97;;;44.53;;
70560;SDS011;58109;53.570;10.084;2023-07-08T13:39:15;34.83;;;21.40;;
70560;SDS011;58109;53.570;10.084;2023-07-08T13:41:47;38.23;;;25.90;;
70560;SDS011;58109;53.570;10.084;2023-07-08T13:44:17;37.33;;;25.90;;
70560;SDS011;58109;53.570;10.084;2023-07-08T13:46:55;59.70;;;34.63;;
70560;SDS011;58109;53.570;10.084;2023-07-08T13:57:17;68.13;;;36.90;;
70560;SDS011;58109;53.570;10.084;2023-07-08T13:59:44;51.47;;;30.83;;
70560;SDS011;58109;53.570;10.084;2023-07-08T14:02:24;40.63;;;27.80;;
70560;SDS011;58109;53.570;10.084;2023-07-08T14:04:54;36.13;;;25.33;;
70560;SDS011;58109;53.570;10.084;2023-07-08T14:07:24;56.17;;;34.17;;
70560;SDS011;58109;53.570;10.084;2023-07-08T14:09:56;79.53;;;41.13;;
70560;SDS011;58109;53.570;10.084;2023-07-08T14:12:22;70.47;;;38.03;;
70560;SDS011;58109;53.570;10.084;2023-07-08T14:14:48;21.00;;;18.77;;
70560;SDS011;58109;53.570;10.084;2023-07-08T14:17:14;44.70;;;27.67;;
70560;SDS011;58109;53.570;10.084;2023-07-08T14:19:48;38.67;;;27.13;;
70560;SDS011;58109;53.570;10.084;2023-07-08T14:24:39;36.60;;;21.37;;
70560;SDS011;58109;53.570;10.084;2023-07-08T14:27:08;55.77;;;25.63;;
70560;SDS011;58109;53.570;10.084;2023-07-08T14:29:41;13.03;;;8.27;;
70560;SDS011;58109;53.570;10.084;2023-07-08T14:32:15;22.80;;;18.30;;
70560;SDS011;58109;53.570;10.084;2023-07-08T14:34:52;40.83;;;27.47;;
70560;SDS011;58109;53.570;10.084;2023-07-08T14:37:22;101.30;;;45.17;;
70560;SDS011;58109;53.570;10.084;2023-07-08T14:39:48;25.97;;;18.70;;
70560;SDS011;58109;53.570;10.084;2023-07-08T14:42:15;21.87;;;15.00;;
70560;SDS011;58109;53.570;10.084;2023-07-08T14:44:48;21.83;;;16.67;;
70560;SDS011;58109;53.570;10.084;2023-07-08T14:47:14;82.03;;;36.03;;
70560;SDS011;58109;53.570;10.084;2023-07-08T14:49:42;21.30;;;17.10;;
70560;SDS011;58109;53.570;10.084;2023-07-08T14:52:10;23.60;;;13.20;;
70560;SDS011;58109;53.570;10.084;2023-07-08T14:54:37;17.67;;;15.87;;
70560;SDS011;58109;53.570;10.084;2023-07-08T14:57:03;9.50;;;8.20;;
70560;SDS011;58109;53.570;10.084;2023-07-08T14:59:30;7.93;;;4.87;;
70560;SDS011;58109;53.570;10.084;2023-07-08T15:01:57;6.70;;;5.10;;
70560;SDS011;58109;53.570;10.084;2023-07-08T15:04:27;9.97;;;4.27;;
70560;SDS011;58109;53.570;10.084;2023-07-08T15:06:53;8.60;;;7.60;;
70560;SDS011;58109;53.570;10.084;2023-07-08T15:09:24;13.10;;;11.00;;
70560;SDS011;58109;53.570;10.084;2023-07-08T15:11:50;11.87;;;9.13;;
70560;SDS011;58109;53.570;10.084;2023-07-08T15:14:24;13.60;;;11.80;;
70560;SDS011;58109;53.570;10.084;2023-07-08T15:16:52;8.00;;;6.70;;
70560;SDS011;58109;53.570;10.084;2023-07-08T15:19:18;7.80;;;7.00;;
70560;SDS011;58109;53.570;10.084;2023-07-08T15:21:47;9.47;;;6.50;;
70560;SDS011;58109;53.570;10.084;2023-07-08T15:24:13;7.30;;;6.60;;
70560;SDS011;58109;53.570;10.084;2023-07-08T15:26:42;14.97;;;5.60;;
70560;SDS011;58109;53.570;10.084;2023-07-08T15:29:18;9.10;;;8.30;;
70560;SDS011;58109;53.570;10.084;2023-07-08T15:31:45;13.70;;;9.90;;
70560;SDS011;58109;53.570;10.084;2023-07-08T15:34:15;11.70;;;10.53;;
70560;SDS011;58109;53.570;10.084;2023-07-08T15:36:46;14.93;;;10.93;;
70560;SDS011;58109;53.570;10.084;2023-07-08T15:39:15;13.70;;;7.47;;
70560;SDS011;58109;53.570;10.084;2023-07-08T15:41:42;11.00;;;8.50;;
70560;SDS011;58109;53.570;10.084;2023-07-08T15:44:09;9.83;;;8.47;;
70560;SDS011;58109;53.570;10.084;2023-07-08T15:46:45;50.33;;;25.63;;
70560;SDS011;58109;53.570;10.084;2023-07-08T23:40:43;4.60;;;2.70;;
70560;SDS011;58109;53.570;10.084;2023-07-08T23:43:14;4.80;;;3.30;;
70560;SDS011;58109;53.570;10.084;2023-07-08T23:45:41;7.53;;;2.03;;
70560;SDS011;58109;53.570;10.084;2023-07-08T23:48:08;4.37;;;2.60;;
70560;SDS011;58109;53.570;10.084;2023-07-08T23:50:41;5.40;;;2.87;;
70560;SDS011;58109;53.570;10.084;2023-07-08T23:53:08;5.60;;;2.60;;
70560;SDS011;58109;53.570;10.084;2023-07-08T23:55:40;4.43;;;2.50;;
70560;SDS011;58109;53.570;10.084;2023-07-08T23:58:17;5.93;;;2.40;;
